Time;durP1;ratioP1;P1;durP2;ratioP2;P2;SDS_P1;SDS_P2;PMS_P1;PMS_P2;Temp;Humidity;BMP_temperature;BMP_pressure;BME280_temperature;BME280_humidity;BME280_pressure;Samples;Min_cycle;Max_cycle;Signal;HPM_P1;HPM_P2
2022/12/05 00:00:30;;;;;;;9.17;5.90;;;;;;;2.30;100.00;97556.28;18293357;32;20077;-64
2022/12/05 00:10:37;;;;;;;8.87;5.60;;;;;;;2.32;100.00;97568.38;18304421;32;20092;-64
2022/12/05 00:20:45;;;;;;;9.47;5.77;;;;;;;2.35;100.00;97589.25;18304210;32;20407;-64
2022/12/05 00:30:48;;;;;;;9.23;5.93;;;;;;;2.41;100.00;97584.91;18303615;32;20085;-64
2022/12/05 00:40:50;;;;;;;10.87;6.77;;;;;;;2.41;100.00;97552.88;18289404;32;20093;-64
2022/12/05 00:51:06;;;;;;;10.63;7.03;;;;;;;2.35;100.00;97543.91;18288754;32;20069;-64
2022/12/05 01:01:27;;;;;;;11.63;7.23;;;;;;;2.32;100.00;97559.56;18302099;32;20050;-65
2022/12/05 01:11:30;;;;;;;12.60;7.80;;;;;;;2.32;100.00;97568.38;18301927;32;20441;-64
2022/12/05 01:21:37;;;;;;;9.93;6.90;;;;;;;2.33;100.00;97585.19;18301218;32;20054;-64
2022/12/05 01:31:40;;;;;;;11.00;6.80;;;;;;;2.33;100.00;97620.69;18286940;32;20057;-64
2022/12/05 01:41:45;;;;;;;14.07;8.63;;;;;;;2.35;100.00;97610.59;18300172;32;20038;-64
2022/12/05 01:51:52;;;;;;;15.07;7.57;;;;;;;2.35;100.00;97615.94;18299748;32;20054;-64
2022/12/05 02:01:54;;;;;;;13.77;7.47;;;;;;;2.33;100.00;97602.03;18298776;32;20105;-64
2022/12/05 02:12:00;;;;;;;12.07;7.27;;;;;;;2.32;100.00;97608.37;18298741;32;20437;-64
2022/12/05 02:22:40;;;;;;;16.37;8.00;;;;;;;2.34;100.00;97613.50;18298222;32;20058;-64
2022/12/05 02:33:01;;;;;;;12.10;7.27;;;;;;;2.29;100.00;97582.16;18297146;32;20112;-64
2022/12/05 02:43:10;;;;;;;14.80;8.00;;;;;;;2.30;100.00;97585.63;18297307;32;20062;-64
2022/12/05 02:53:16;;;;;;;12.70;7.40;;;;;;;2.32;100.00;97580.91;18296646;32;20073;-64
2022/12/05 03:03:22;;;;;;;14.90;8.80;;;;;;;2.33;100.00;97614.53;18295738;32;20424;-64
2022/12/05 03:13:30;;;;;;;13.23;8.13;;;;;;;2.37;100.00;97632.56;18295864;32;20080;-64
2022/12/05 03:23:37;;;;;;;11.70;7.20;;;;;;;2.35;100.00;97645.28;18282224;32;20172;-64
2022/12/05 03:33:47;;;;;;;11.73;6.87;;;;;;;2.27;100.00;97634.91;18281393;32;20437;-64
2022/12/05 03:44:12;;;;;;;10.20;6.33;;;;;;;2.22;100.00;97629.41;18293714;32;20054;-64
2022/12/05 03:54:22;;;;;;;9.93;6.77;;;;;;;2.21;100.00;97638.44;18293709;32;20058;-64
2022/12/05 04:04:35;;;;;;;13.37;7.43;;;;;;;2.18;100.00;97646.87;18279580;32;20101;-64
2022/12/05 04:14:48;;;;;;;12.53;6.47;;;;;;;2.20;100.00;97668.81;18293942;32;20061;-64
2022/12/05 04:35:21;;;;;;;11.60;6.70;;;;;;;2.18;100.00;97662.91;18292556;32;20081;-64
2022/12/05 04:45:25;;;;;;;9.70;6.73;;;;;;;2.13;100.00;97663.53;18277449;32;20062;-64
2022/12/05 04:55:32;;;;;;;12.87;7.17;;;;;;;2.08;100.00;97651.88;18287231;32;20097;-64
2022/12/05 05:05:36;;;;;;;10.27;6.57;;;;;;;2.06;100.00;97701.97;18301706;32;20046;-64
2022/12/05 05:15:39;;;;;;;9.43;6.50;;;;;;;2.12;100.00;97706.41;18301736;32;20054;-64
2022/12/05 05:25:41;;;;;;;10.77;6.83;;;;;;;2.06;100.00;97720.63;18301019;32;20057;-64
2022/12/05 05:35:43;;;;;;;10.80;7.07;;;;;;;2.10;100.00;97735.16;18300483;32;20089;-64
2022/12/05 05:45:46;;;;;;;12.80;7.73;;;;;;;2.08;100.00;97727.34;18299611;32;20441;-64
2022/12/05 05:55:49;;;;;;;9.63;6.43;;;;;;;2.15;100.00;97762.84;18299835;32;20094;-64
2022/12/05 06:05:59;;;;;;;10.83;6.47;;;;;;;2.25;100.00;97767.72;18298552;32;20374;-64
2022/12/05 06:16:03;;;;;;;10.00;6.47;;;;;;;2.24;100.00;97786.59;18298526;32;20106;-64
2022/12/05 06:26:11;;;;;;;10.00;5.82;;;;;;;2.12;100.00;97784.59;18298058;32;20343;-64
2022/12/05 06:36:17;;;;;;;10.33;5.80;;;;;;;2.03;100.00;97791.22;18297444;32;20060;-64
2022/12/05 06:46:21;;;;;;;10.80;7.40;;;;;;;1.98;100.00;97823.03;18283355;32;20050;-64
2022/12/05 06:56:24;;;;;;;9.20;6.00;;;;;;;1.84;100.00;97830.25;18296563;32;20070;-64
2022/12/05 07:06:27;;;;;;;8.97;5.50;;;;;;;1.64;100.00;97844.44;18282286;32;20080;-64
2022/12/05 07:16:30;;;;;;;8.07;5.57;;;;;;;1.77;100.00;97838.25;18295288;32;20092;-64
2022/12/05 07:26:33;;;;;;;8.33;5.10;;;;;;;1.75;100.00;97847.50;18295368;32;20094;-64
2022/12/05 07:36:36;;;;;;;9.97;5.93;;;;;;;1.72;100.00;97858.59;18294607;32;20069;-64
2022/12/05 07:46:39;;;;;;;8.67;5.40;;;;;;;1.68;100.00;97868.84;18294642;32;20085;-64
2022/12/05 07:56:41;;;;;;;8.47;5.33;;;;;;;1.69;100.00;97873.16;18279766;32;20398;-64
2022/12/05 08:06:49;;;;;;;8.33;5.43;;;;;;;1.93;100.00;97876.16;18293509;32;20055;-64
2022/12/05 08:16:51;;;;;;;10.23;6.30;;;;;;;2.18;100.00;97871.78;18293470;32;20068;-64
2022/12/05 08:26:54;;;;;;;8.50;5.70;;;;;;;2.49;100.00;97888.88;18298252;32;20069;-65
2022/12/05 08:36:56;;;;;;;10.07;6.17;;;;;;;2.87;100.00;97903.28;18303231;32;20058;-65
2022/12/05 08:46:59;;;;;;;9.60;5.63;;;;;;;3.04;100.00;97906.25;18303105;32;20479;-64
2022/12/05 08:57:02;;;;;;;8.33;5.80;;;;;;;3.22;100.00;97908.19;18301938;32;20072;-65
2022/12/05 09:07:07;;;;;;;13.53;8.53;;;;;;;3.37;100.00;97905.19;18287514;32;20395;-64
2022/12/05 09:17:09;;;;;;;12.13;8.10;;;;;;;3.57;100.00;97915.75;18301228;32;20062;-65
2022/12/05 09:27:12;;;;;;;10.97;6.90;;;;;;;3.80;100.00;97917.00;18287032;32;20086;-64
2022/12/05 09:37:17;;;;;;;24.17;12.13;;;;;;;4.04;100.00;97926.84;18300308;32;20066;-64
2022/12/05 09:47:56;;;;;;;15.13;9.37;;;;;;;4.52;100.00;97938.69;18299917;32;20400;-64
2022/12/05 09:58:02;;;;;;;14.90;9.67;;;;;;;4.45;100.00;97955.84;18298757;32;20091;-65
2022/12/05 10:08:50;;;;;;;14.23;8.93;;;;;;;4.32;100.00;97970.22;18296194;32;20062;-65
2022/12/05 10:19:05;;;;;;;12.50;7.83;;;;;;;4.45;100.00;97963.88;18295411;32;20449;-64
2022/12/05 10:29:28;;;;;;;12.47;6.63;;;;;;;4.50;100.00;97956.81;18281588;32;20053;-64
2022/12/05 10:39:31;;;;;;;10.03;6.50;;;;;;;4.52;100.00;97962.78;18281370;32;20050;-65
2022/12/05 10:49:37;;;;;;;12.67;8.47;;;;;;;4.68;100.00;97968.56;18293868;32;20110;-64
2022/12/05 10:59:47;;;;;;;12.40;8.33;;;;;;;4.70;100.00;97961.94;18294560;32;20106;-64
2022/12/05 11:09:51;;;;;;;15.13;9.00;;;;;;;5.18;100.00;97971.03;18281818;32;20054;-65
2022/12/05 11:19:54;;;;;;;15.63;9.27;;;;;;;5.55;100.00;97956.66;18295596;32;20090;-64
2022/12/05 11:30:02;;;;;;;10.97;7.27;;;;;;;5.74;100.00;97943.97;18294925;32;20403;-65
2022/12/05 11:40:46;;;;;;;4.00;2.77;;;;;;;5.93;100.00;97929.41;18294648;32;20366;-64
2022/12/05 11:51:20;;;;;;;8.27;5.10;;;;;;;5.82;100.00;97935.56;18280685;32;20102;-64
2022/12/05 12:01:31;;;;;;;6.63;4.00;;;;;;;5.83;100.00;97923.78;18298959;32;20050;-64
2022/12/05 12:11:41;;;;;;;6.87;4.83;;;;;;;5.80;100.00;97920.75;18304747;32;20437;-64
2022/12/05 12:21:52;;;;;;;8.43;5.20;;;;;;;6.01;100.00;97919.41;18304273;32;20102;-64
2022/12/05 12:32:32;;;;;;;6.50;4.10;;;;;;;6.08;100.00;97925.44;18303874;32;20050;-65
2022/12/05 12:43:08;;;;;;;9.50;5.43;;;;;;;5.84;100.00;97909.34;18303284;32;20387;-64
2022/12/05 12:54:00;;;;;;;9.83;6.67;;;;;;;6.27;100.00;97924.25;18303294;32;20062;-64
2022/12/05 13:04:24;;;;;;;7.87;4.63;;;;;;;6.50;95.10;97911.03;18301701;32;20042;-64
2022/12/05 13:14:31;;;;;;;5.70;3.70;;;;;;;6.37;100.00;97910.25;18301780;32;20121;-64
2022/12/05 13:24:35;;;;;;;5.53;3.23;;;;;;;6.21;100.00;97902.94;18287443;32;20109;-64
2022/12/05 13:34:47;;;;;;;3.57;2.53;;;;;;;6.08;100.00;97904.81;18300540;32;20058;-64
2022/12/05 13:44:57;;;;;;;3.00;2.17;;;;;;;5.98;100.00;97906.44;18286380;32;20451;-64
2022/12/05 13:55:20;;;;;;;2.73;1.83;;;;;;;5.78;100.00;97910.25;18299582;32;20106;-64
2022/12/05 14:05:26;;;;;;;3.97;2.20;;;;;;;5.30;100.00;97906.69;18299204;32;20369;-65
2022/12/05 14:15:33;;;;;;;5.03;2.50;;;;;;;4.97;100.00;97894.59;18298663;32;20058;-64
2022/12/05 14:25:49;;;;;;;3.40;2.13;;;;;;;4.97;100.00;97916.03;18297589;32;20361;-64
2022/12/05 14:36:07;;;;;;;3.33;2.40;;;;;;;5.17;100.00;97906.91;18297784;32;20109;-64
2022/12/05 14:46:30;;;;;;;3.13;2.17;;;;;;;5.16;100.00;97907.97;18296993;32;20071;-64
2022/12/05 14:56:46;;;;;;;7.73;2.93;;;;;;;5.08;100.00;97920.66;18296874;32;20084;-64
2022/12/05 15:07:03;;;;;;;3.78;2.50;;;;;;;5.28;99.56;97927.56;18296170;32;20038;-64
2022/12/05 15:17:13;;;;;;;3.47;2.50;;;;;;;4.87;100.00;97927.31;18295669;32;20387;-64
2022/12/05 15:27:17;;;;;;;3.73;2.20;;;;;;;4.51;100.00;97934.34;18295775;32;20121;-65
2022/12/05 15:37:29;;;;;;;2.77;2.03;;;;;;;4.30;100.00;97940.97;18294567;32;20058;-64
2022/12/05 15:47:33;;;;;;;2.83;2.13;;;;;;;4.11;100.00;97939.31;18294381;32;20442;-64
2022/12/05 15:57:49;;;;;;;3.23;1.80;;;;;;;3.88;100.00;97948.81;18267646;32;20066;-64
2022/12/05 16:07:53;;;;;;;1.83;1.50;;;;;;;3.51;100.00;97952.19;18293892;32;20105;-64
2022/12/05 16:18:02;;;;;;;2.70;1.73;;;;;;;3.17;100.00;97950.78;18279542;32;20055;-64
2022/12/05 16:28:10;;;;;;;1.57;1.30;;;;;;;2.90;100.00;97958.94;18293042;32;20383;-64
2022/12/05 16:38:16;;;;;;;2.23;1.63;;;;;;;2.87;100.00;97962.84;18292168;32;20069;-64
2022/12/05 16:48:30;;;;;;;3.50;2.07;;;;;;;2.93;100.00;97969.19;18298420;32;20058;-64
2022/12/05 16:58:34;;;;;;;4.40;2.60;;;;;;;2.59;100.00;97965.03;18302905;32;20053;-64
2022/12/05 17:08:38;;;;;;;4.37;2.30;;;;;;;2.12;100.00;97965.16;18302066;32;20065;-64
2022/12/05 17:18:41;;;;;;;3.47;2.30;;;;;;;1.75;100.00;97972.81;18287667;32;20506;-64
2022/12/05 17:28:45;;;;;;;4.33;3.07;;;;;;;1.52;100.00;97988.19;18287193;32;20046;-64
2022/12/05 17:38:49;;;;;;;3.10;2.37;;;;;;;1.46;100.00;97996.16;18300483;32;20449;-64
2022/12/05 17:48:52;;;;;;;5.00;3.70;;;;;;;1.54;100.00;98003.97;18300183;32;20077;-64
2022/12/05 17:58:55;;;;;;;3.93;2.70;;;;;;;1.32;100.00;98025.44;18298311;32;20125;-64
2022/12/05 18:09:02;;;;;;;5.47;3.90;;;;;;;1.21;100.00;98018.03;18299444;32;20069;-65
2022/12/05 18:19:07;;;;;;;10.00;6.57;;;;;;;1.23;100.00;98020.50;18284883;32;20068;-65
2022/12/05 18:29:10;;;;;;;7.80;5.45;;;;;;;1.23;100.00;98029.31;18297963;32;20051;-64
2022/12/05 18:39:16;;;;;;;6.43;3.97;;;;;;;1.05;100.00;98029.06;18284096;32;20114;-64
2022/12/05 18:49:19;;;;;;;4.93;3.67;;;;;;;1.05;100.00;98029.06;18297418;32;20371;-65
2022/12/05 18:59:22;;;;;;;5.63;4.20;;;;;;;0.89;100.00;98033.72;18296338;32;20117;-64
2022/12/05 19:09:30;;;;;;;6.30;4.40;;;;;;;0.91;100.00;98034.31;18296141;32;20115;-64
2022/12/05 19:19:33;;;;;;;6.27;4.67;;;;;;;0.81;100.00;98032.03;18295724;32;20066;-64
2022/12/05 19:29:37;;;;;;;6.47;4.33;;;;;;;0.89;100.00;98035.53;18295060;32;20150;-65
2022/12/05 19:39:40;;;;;;;5.97;3.83;;;;;;;1.09;100.00;98051.59;18294819;32;20110;-64
2022/12/05 19:49:44;;;;;;;3.87;3.23;;;;;;;1.26;100.00;98052.91;18294542;32;20049;-64
2022/12/05 19:59:46;;;;;;;5.67;3.83;;;;;;;1.42;100.00;98056.22;18293712;32;20049;-64
2022/12/05 20:09:49;;;;;;;5.20;3.80;;;;;;;1.57;100.00;98061.38;18294009;32;20047;-64
2022/12/05 20:19:52;;;;;;;4.13;3.17;;;;;;;1.70;100.00;98048.06;18282348;32;20046;-64
2022/12/05 20:29:55;;;;;;;4.60;3.20;;;;;;;1.73;100.00;98058.31;18303924;32;20089;-64
2022/12/05 20:39:59;;;;;;;5.90;4.40;;;;;;;1.86;100.00;98058.34;18303735;32;20057;-64
2022/12/05 20:50:02;;;;;;;7.60;4.60;;;;;;;2.00;100.00;98056.50;18303213;32;20419;-64
2022/12/05 21:00:06;;;;;;;6.47;4.70;;;;;;;2.06;100.00;98049.50;18302458;32;20149;-64
2022/12/05 21:10:10;;;;;;;7.33;4.70;;;;;;;1.97;100.00;98051.53;18301850;32;20093;-64
2022/12/05 21:20:12;;;;;;;6.73;4.67;;;;;;;1.81;100.00;98039.47;18301535;32;20061;-64
2022/12/05 21:30:15;;;;;;;6.17;4.73;;;;;;;1.77;100.00;98027.56;18300841;32;20160;-64
2022/12/05 21:40:18;;;;;;;6.80;5.00;;;;;;;1.76;100.00;98022.44;18300901;32;20117;-64
2022/12/05 21:50:21;;;;;;;4.93;3.80;;;;;;;1.65;100.00;98011.34;18300220;32;20038;-64
2022/12/05 22:00:23;;;;;;;6.13;4.20;;;;;;;1.35;100.00;98019.69;18285669;32;20050;-64
2022/12/05 22:10:26;;;;;;;5.97;4.03;;;;;;;1.27;100.00;98016.41;18285597;32;20062;-64
2022/12/05 22:20:30;;;;;;;7.67;5.00;;;;;;;0.94;100.00;98009.16;18285216;32;20069;-64
2022/12/05 22:30:33;;;;;;;5.83;4.07;;;;;;;0.71;100.00;98007.62;18284703;32;20046;-64
2022/12/05 22:40:36;;;;;;;6.33;4.07;;;;;;;0.47;100.00;98006.28;18296977;32;20084;-64
2022/12/05 22:50:38;;;;;;;6.63;4.40;;;;;;;0.16;100.00;98004.87;18296950;32;20075;-65
2022/12/05 23:00:41;;;;;;;6.50;4.27;;;;;;;-0.12;100.00;97997.72;18296327;32;20059;-64
2022/12/05 23:10:43;;;;;;;5.80;3.93;;;;;;;-0.31;100.00;97982.47;18296680;32;20054;-64
2022/12/05 23:20:46;;;;;;;7.13;4.30;;;;;;;-0.43;100.00;97979.50;18281953;32;20054;-64
2022/12/05 23:30:48;;;;;;;6.73;5.17;;;;;;;-0.58;100.00;97968.94;18295153;32;20076;-65
2022/12/05 23:41:09;;;;;;;6.93;4.60;;;;;;;-0.60;100.00;97957.72;18294780;32;20062;-64
2022/12/05 23:51:19;;;;;;;6.33;4.17;;;;;;;-0.71;100.00;97959.84;18294458;32;20101;-64
